Time;durP1;ratioP1;P1;durP2;ratioP2;P2;SDS_P1;SDS_P2;PMS_P1;PMS_P2;Temp;Humidity;BMP_temperature;BMP_pressure;BME280_temperature;BME280_humidity;BME280_pressure;Samples;Min_cycle;Max_cycle;Signal;HPM_P1;HPM_P2
2022/04/16 00:02:23;;;;;;;5.10;1.98;;;22.10;99.90;;;;;;5028236;28;20138;-69
2022/04/16 00:04:50;;;;;;;5.20;2.30;;;22.10;99.90;;;;;;5029278;28;20029;-69
2022/04/16 00:07:17;;;;;;;4.47;2.10;;;22.30;99.90;;;;;;5008668;28;20408;-65
2022/04/16 00:09:43;;;;;;;2.47;1.85;;;22.50;99.90;;;;;;5031763;28;20073;-65
2022/04/16 00:12:10;;;;;;;6.68;2.30;;;22.50;99.90;;;;;;5031009;28;20102;-71
2022/04/16 00:14:38;;;;;;;5.53;2.22;;;22.70;99.90;;;;;;5033510;28;20025;-65
2022/04/16 00:17:06;;;;;;;2.78;1.55;;;22.90;99.90;;;;;;5033695;28;20025;-69
2022/04/16 00:19:34;;;;;;;2.95;1.80;;;23.10;99.90;;;;;;5034838;28;20025;-65
2022/04/16 00:22:01;;;;;;;4.32;1.75;;;23.30;99.90;;;;;;5033898;28;20057;-65
2022/04/16 00:24:28;;;;;;;3.45;1.67;;;23.50;99.90;;;;;;5026586;28;20467;-70
2022/04/16 00:26:55;;;;;;;3.58;1.80;;;23.60;99.90;;;;;;5010099;28;20404;-65
2022/04/16 00:29:23;;;;;;;5.57;1.70;;;23.50;99.90;;;;;;5028613;28;20037;-65
2022/04/16 00:31:50;;;;;;;4.10;1.65;;;23.90;99.90;;;;;;5031331;28;20064;-65
2022/04/16 00:34:18;;;;;;;3.28;1.55;;;24.10;99.90;;;;;;5029191;28;20053;-65
2022/04/16 00:36:46;;;;;;;4.18;1.65;;;24.40;99.90;;;;;;5031558;28;20028;-65
2022/04/16 00:39:13;;;;;;;4.07;1.42;;;24.70;99.90;;;;;;5027530;28;20018;-69
2022/04/16 00:41:40;;;;;;;2.78;1.65;;;24.90;99.90;;;;;;5030046;28;20025;-69
2022/04/16 00:44:07;;;;;;;2.03;1.30;;;25.00;99.90;;;;;;5029300;28;20049;-69
2022/04/16 00:46:34;;;;;;;2.78;1.20;;;25.30;99.90;;;;;;5031073;28;20029;-70
2022/04/16 00:49:02;;;;;;;3.20;1.35;;;25.40;99.90;;;;;;5028608;28;20050;-65
2022/04/16 00:51:30;;;;;;;1.25;1.05;;;25.40;99.90;;;;;;5029871;28;20026;-65
2022/04/16 00:53:57;;;;;;;2.00;1.20;;;25.50;99.90;;;;;;5028004;28;20133;-65
2022/04/16 00:56:24;;;;;;;2.95;1.27;;;25.60;99.90;;;;;;5028314;28;20472;-65
2022/04/16 00:58:51;;;;;;;2.35;1.38;;;25.50;99.90;;;;;;5025987;28;20469;-69
2022/04/16 01:01:18;;;;;;;2.38;1.83;;;25.60;99.90;;;;;;5010886;28;20053;-65
2022/04/16 01:03:47;;;;;;;2.67;1.40;;;25.60;99.90;;;;;;5026962;28;20533;-69
2022/04/16 01:06:15;;;;;;;4.45;1.77;;;25.60;99.90;;;;;;5028882;28;20360;-65
2022/04/16 01:08:45;;;;;;;2.60;1.40;;;25.80;99.90;;;;;;5026373;28;20630;-65
2022/04/16 01:11:14;;;;;;;3.20;1.30;;;26.00;99.90;;;;;;5030034;28;20020;-69
2022/04/16 01:13:47;;;;;;;2.42;1.52;;;26.40;99.90;;;;;;5029895;28;20510;-70
2022/04/16 01:16:14;;;;;;;1.95;1.55;;;26.60;99.90;;;;;;5029825;28;20271;-65
2022/04/16 01:18:50;;;;;;;5.80;1.67;;;26.60;99.90;;;;;;5028750;28;20010;-65
2022/04/16 01:21:18;;;;;;;3.42;1.50;;;26.80;99.90;;;;;;5030270;28;20462;-65
2022/04/16 01:23:45;;;;;;;3.60;1.73;;;27.00;99.90;;;;;;5027405;28;20054;-70
2022/04/16 01:26:12;;;;;;;4.50;1.45;;;27.20;99.90;;;;;;5030584;28;20018;-70
2022/04/16 01:28:43;;;;;;;2.42;1.20;;;27.30;99.90;;;;;;5028600;28;20014;-66
2022/04/16 01:31:10;;;;;;;4.28;1.35;;;27.40;99.20;;;;;;5031209;28;20157;-65
2022/04/16 01:33:37;;;;;;;3.17;1.38;;;27.50;99.30;;;;;;5028466;28;20113;-70
2022/04/16 01:36:05;;;;;;;3.15;1.52;;;27.60;98.30;;;;;;5027038;28;20241;-70
2022/04/16 01:38:32;;;;;;;2.75;1.30;;;27.60;98.50;;;;;;5037443;28;20504;-69
2022/04/16 01:40:59;;;;;;;3.13;1.30;;;27.70;98.30;;;;;;5041028;28;20025;-66
2022/04/16 01:43:26;;;;;;;3.45;1.67;;;27.80;98.60;;;;;;5042695;28;20041;-65
2022/04/16 01:45:54;;;;;;;3.03;1.63;;;28.10;97.50;;;;;;5058341;28;20032;-65
2022/04/16 01:48:22;;;;;;;3.95;1.42;;;27.90;97.20;;;;;;5056194;28;20023;-70
2022/04/16 01:50:49;;;;;;;1.75;1.15;;;27.90;97.50;;;;;;5051992;28;20025;-70
2022/04/16 01:53:16;;;;;;;1.85;1.20;;;27.70;97.70;;;;;;5047268;28;20017;-66
2022/04/16 01:55:43;;;;;;;2.08;1.17;;;27.30;98.50;;;;;;5056154;28;20009;-65
2022/04/16 01:58:11;;;;;;;2.53;1.00;;;26.90;98.50;;;;;;5056632;28;20032;-66
2022/04/16 02:00:39;;;;;;;3.38;1.20;;;26.50;98.00;;;;;;5054308;28;20017;-71
2022/04/16 02:03:08;;;;;;;2.28;1.20;;;25.90;98.80;;;;;;5047812;28;20692;-70
2022/04/16 02:05:35;;;;;;;4.38;1.20;;;25.40;99.90;;;;;;5053876;28;20020;-66
2022/04/16 02:08:02;;;;;;;1.60;1.13;;;25.20;99.90;;;;;;5056141;28;20530;-70
2022/04/16 02:10:30;;;;;;;2.47;1.33;;;25.60;99.90;;;;;;5059628;28;20024;-70
2022/04/16 02:12:57;;;;;;;1.42;0.95;;;26.30;98.30;;;;;;5051921;28;20024;-66
2022/04/16 02:15:24;;;;;;;2.20;0.90;;;26.70;97.20;;;;;;5057455;28;20032;-66
2022/04/16 02:17:50;;;;;;;3.65;1.30;;;26.50;97.80;;;;;;5056083;28;20013;-71
2022/04/16 02:20:17;;;;;;;2.75;1.15;;;26.10;98.10;;;;;;5053827;28;20348;-66
2022/04/16 02:22:46;;;;;;;4.35;2.28;;;25.70;98.90;;;;;;5052191;28;20021;-66
2022/04/16 02:25:15;;;;;;;4.30;1.30;;;25.30;99.30;;;;;;5057916;28;20033;-70
2022/04/16 02:27:42;;;;;;;4.13;1.30;;;25.00;99.60;;;;;;5056747;28;20025;-66
2022/04/16 02:30:12;;;;;;;2.53;1.20;;;24.90;99.40;;;;;;5054479;28;20033;-69
2022/04/16 02:32:46;;;;;;;16.08;2.80;;;24.80;99.50;;;;;;5051629;28;20051;-70
2022/04/16 02:35:15;;;;;;;8.80;1.65;;;24.60;99.70;;;;;;5053343;28;20021;-66
2022/04/16 02:37:43;;;;;;;1.63;1.13;;;24.30;99.90;;;;;;5056449;28;20041;-66
2022/04/16 02:40:11;;;;;;;2.05;1.40;;;24.10;99.90;;;;;;5054156;28;20024;-66
2022/04/16 02:42:41;;;;;;;1.75;0.90;;;24.90;99.90;;;;;;5051470;28;20025;-70
2022/04/16 02:47:56;;;;;;;3.22;1.10;;;26.40;95.90;;;;;;5055489;28;20435;-66
2022/04/16 02:50:25;;;;;;;1.60;1.10;;;27.10;94.50;;;;;;5052744;28;20411;-66
2022/04/16 02:52:54;;;;;;;1.30;0.75;;;27.50;92.10;;;;;;5051933;28;20430;-66
2022/04/16 02:55:21;;;;;;;0.85;0.60;;;27.80;90.70;;;;;;5056884;28;20044;-66
2022/04/16 02:57:51;;;;;;;0.88;0.70;;;28.10;90.50;;;;;;5057651;28;20061;-66
2022/04/16 03:00:22;;;;;;;2.30;0.70;;;28.40;88.40;;;;;;5052692;28;20024;-66
2022/04/16 03:02:53;;;;;;;1.92;0.75;;;28.60;87.50;;;;;;5052588;28;20115;-66
2022/04/16 03:05:21;;;;;;;1.27;0.65;;;28.60;89.00;;;;;;5057406;28;20021;-70
2022/04/16 03:07:47;;;;;;;1.95;0.88;;;28.80;86.40;;;;;;5042425;28;20079;-66
2022/04/16 03:10:15;;;;;;;0.93;0.63;;;28.80;86.60;;;;;;5054187;28;20372;-72
2022/04/16 03:12:52;;;;;;;2.80;0.90;;;29.10;85.70;;;;;;5050649;28;20056;-69
2022/04/16 03:18:07;;;;;;;2.28;0.77;;;29.60;80.80;;;;;;5046745;28;20027;-66
2022/04/16 03:20:37;;;;;;;1.45;0.90;;;29.60;81.40;;;;;;5051879;28;20023;-66
2022/04/16 03:23:05;;;;;;;2.53;0.60;;;29.60;84.70;;;;;;5051281;28;20486;-70
2022/04/16 03:25:32;;;;;;;1.42;0.90;;;29.50;83.80;;;;;;5057040;28;20024;-67
2022/04/16 03:27:59;;;;;;;1.63;0.77;;;29.40;81.70;;;;;;5059241;28;20475;-66
2022/04/16 03:30:26;;;;;;;1.65;0.80;;;29.30;84.60;;;;;;5049854;28;20023;-71
2022/04/16 03:32:54;;;;;;;3.60;1.10;;;28.90;84.50;;;;;;5051832;28;20411;-66
2022/04/16 03:35:22;;;;;;;0.70;0.63;;;28.70;87.10;;;;;;5057841;28;20086;-66
2022/04/16 03:37:50;;;;;;;1.20;0.90;;;28.60;87.60;;;;;;5044018;28;20041;-69
2022/04/16 03:40:17;;;;;;;1.38;0.68;;;28.60;86.20;;;;;;5059318;28;20096;-69
2022/04/16 03:42:51;;;;;;;1.27;0.60;;;28.60;84.90;;;;;;5057746;28;20023;-66
2022/04/16 03:45:20;;;;;;;1.98;0.80;;;28.60;79.70;;;;;;5064140;28;20024;-71
2022/04/16 03:47:48;;;;;;;0.82;0.60;;;28.30;81.50;;;;;;5057181;28;20056;-67
2022/04/16 03:50:16;;;;;;;1.73;0.68;;;28.10;81.30;;;;;;5061041;28;20021;-70
2022/04/16 03:52:44;;;;;;;0.90;0.60;;;27.80;81.40;;;;;;5057749;28;20017;-69
2022/04/16 04:00:46;;;;;;;1.75;0.60;;;27.10;81.30;;;;;;5053879;28;20029;-71
2022/04/16 04:03:14;;;;;;;1.77;0.73;;;27.10;82.40;;;;;;5049435;28;20025;-66
2022/04/16 04:05:43;;;;;;;1.02;0.57;;;27.20;82.60;;;;;;5062313;28;20040;-67
2022/04/16 04:08:10;;;;;;;1.45;0.60;;;27.30;82.70;;;;;;5060384;28;20059;-66
2022/04/16 04:10:38;;;;;;;1.15;0.70;;;27.70;84.20;;;;;;5058549;28;20108;-66
2022/04/16 04:13:05;;;;;;;1.10;0.50;;;27.90;81.60;;;;;;5051600;28;20035;-70
2022/04/16 04:15:32;;;;;;;1.58;0.90;;;27.50;81.00;;;;;;5061801;28;20021;-66
2022/04/16 04:18:00;;;;;;;1.10;0.70;;;27.30;80.80;;;;;;5064025;28;20077;-66
2022/04/16 04:20:28;;;;;;;1.25;0.93;;;27.10;82.90;;;;;;5056566;28;20425;-70
2022/04/16 04:22:55;;;;;;;3.35;0.93;;;27.00;83.70;;;;;;5057286;28;20098;-66
2022/04/16 04:25:22;;;;;;;2.10;0.80;;;26.80;84.30;;;;;;5061872;28;20282;-67
2022/04/16 04:27:49;;;;;;;1.75;1.00;;;26.80;84.70;;;;;;5062067;28;20048;-72
2022/04/16 04:30:16;;;;;;;2.45;0.73;;;27.10;86.10;;;;;;5059239;28;20025;-66
2022/04/16 04:32:43;;;;;;;1.08;0.70;;;27.40;86.30;;;;;;5056006;28;20107;-71
2022/04/16 04:35:11;;;;;;;1.63;0.85;;;27.60;86.40;;;;;;5061607;28;20021;-71
2022/04/16 04:37:38;;;;;;;2.20;0.77;;;27.80;84.30;;;;;;5052049;28;20037;-67
2022/04/16 04:40:06;;;;;;;2.05;0.73;;;28.00;84.40;;;;;;5036617;28;20018;-67
2022/04/16 04:42:35;;;;;;;2.05;0.68;;;28.30;83.40;;;;;;5036721;28;20502;-66
2022/04/16 04:45:13;;;;;;;4.20;0.88;;;28.50;82.50;;;;;;5035867;28;20025;-71
2022/04/16 04:47:40;;;;;;;1.52;0.82;;;28.80;82.30;;;;;;5036559;28;20025;-72
2022/04/16 04:50:08;;;;;;;1.20;1.00;;;28.90;81.80;;;;;;5035552;28;20044;-66
2022/04/16 04:52:39;;;;;;;2.97;1.17;;;29.10;81.50;;;;;;5032381;28;20083;-72
2022/04/16 04:55:12;;;;;;;2.20;1.17;;;29.00;82.00;;;;;;5039859;28;20112;-67
2022/04/16 04:57:42;;;;;;;1.63;1.10;;;29.00;82.90;;;;;;5033131;28;20113;-67
2022/04/16 05:00:11;;;;;;;1.33;1.00;;;29.00;81.30;;;;;;5035679;28;20370;-67
2022/04/16 05:02:47;;;;;;;1.45;0.82;;;29.00;80.90;;;;;;5015587;28;20076;-67
2022/04/16 05:05:16;;;;;;;4.72;1.52;;;29.20;80.70;;;;;;5033282;28;20578;-67
2022/04/16 05:07:43;;;;;;;2.00;1.00;;;29.10;80.70;;;;;;5032923;28;20053;-67
2022/04/16 05:10:10;;;;;;;3.90;1.55;;;29.00;80.80;;;;;;5033771;28;20033;-67
2022/04/16 05:12:37;;;;;;;2.97;1.00;;;28.90;82.60;;;;;;5031568;28;20104;-66
2022/04/16 05:15:05;;;;;;;2.83;0.88;;;28.90;81.20;;;;;;5025536;28;20434;-66
2022/04/16 05:17:36;;;;;;;1.35;0.80;;;28.90;80.50;;;;;;5032690;28;20018;-69
2022/04/16 05:20:04;;;;;;;2.85;1.10;;;28.80;82.20;;;;;;5032970;28;20040;-67
2022/04/16 05:22:31;;;;;;;1.60;0.90;;;28.70;83.10;;;;;;5032812;28;20024;-67
2022/04/16 05:24:58;;;;;;;2.25;1.23;;;28.60;84.70;;;;;;5032434;28;20112;-69
2022/04/16 05:27:25;;;;;;;2.28;1.40;;;28.40;86.80;;;;;;5032731;28;20483;-66
2022/04/16 05:30:12;;;;;;;3.75;1.20;;;28.00;87.10;;;;;;5035610;28;20121;-66
2022/04/16 05:32:42;;;;;;;2.15;1.30;;;27.30;89.20;;;;;;5032671;28;20152;-66
2022/04/16 05:35:10;;;;;;;16.15;3.00;;;26.60;91.00;;;;;;5037561;28;20127;-69
2022/04/16 05:37:38;;;;;;;3.08;1.60;;;26.10;91.80;;;;;;5033218;28;20399;-67
2022/04/16 05:40:06;;;;;;;2.03;1.48;;;25.60;94.60;;;;;;5039416;28;20494;-68
2022/04/16 05:42:38;;;;;;;7.90;2.60;;;25.20;98.10;;;;;;5032075;28;20018;-66
2022/04/16 05:45:05;;;;;;;6.10;2.17;;;24.80;99.90;;;;;;5029066;28;20395;-66
2022/04/16 05:47:32;;;;;;;4.72;2.40;;;24.60;99.90;;;;;;5033841;28;20503;-71
2022/04/16 05:49:59;;;;;;;8.55;2.20;;;24.50;99.90;;;;;;5032777;28;20029;-71
2022/04/16 05:52:27;;;;;;;4.57;2.03;;;24.30;99.90;;;;;;5033182;28;20040;-70
2022/04/16 05:54:54;;;;;;;8.27;2.35;;;24.20;99.90;;;;;;5050624;28;20468;-66
2022/04/16 05:57:25;;;;;;;7.18;2.20;;;24.20;99.90;;;;;;5035950;28;20082;-69
2022/04/16 05:59:52;;;;;;;7.03;2.53;;;24.50;99.90;;;;;;5032926;28;20494;-67
2022/04/16 06:02:19;;;;;;;5.90;2.33;;;24.80;99.90;;;;;;5031851;28;20423;-69
2022/04/16 06:04:46;;;;;;;6.90;2.05;;;24.90;99.90;;;;;;5033630;28;20489;-66
2022/04/16 06:07:14;;;;;;;5.20;2.30;;;25.10;99.90;;;;;;5036638;28;20109;-71
2022/04/16 06:09:41;;;;;;;4.80;1.83;;;25.60;99.90;;;;;;5031793;28;20024;-70
2022/04/16 06:12:11;;;;;;;6.20;2.25;;;26.10;99.90;;;;;;5036273;28;20029;-67
2022/04/16 06:14:38;;;;;;;5.60;2.03;;;26.50;99.90;;;;;;5033346;28;20025;-66
2022/04/16 06:17:05;;;;;;;4.47;2.10;;;26.70;99.90;;;;;;5035612;28;20028;-69
2022/04/16 06:19:32;;;;;;;2.60;1.90;;;26.50;99.90;;;;;;5031566;28;20311;-66
2022/04/16 06:21:59;;;;;;;4.70;2.05;;;26.70;99.90;;;;;;5032168;28;20436;-71
2022/04/16 06:24:26;;;;;;;6.70;2.10;;;26.70;99.90;;;;;;5031448;28;20029;-66
2022/04/16 06:26:53;;;;;;;4.30;1.77;;;26.70;99.90;;;;;;5031929;28;20040;-71
2022/04/16 06:29:20;;;;;;;6.30;2.38;;;26.90;99.90;;;;;;5032269;28;20052;-66
2022/04/16 06:31:47;;;;;;;5.65;1.88;;;26.90;99.90;;;;;;5031205;28;20014;-70
2022/04/16 06:34:14;;;;;;;4.60;1.85;;;27.00;99.90;;;;;;5031488;28;20028;-71
2022/04/16 06:36:41;;;;;;;4.10;1.80;;;26.90;99.90;;;;;;5038180;28;20025;-66
2022/04/16 06:39:08;;;;;;;5.90;2.40;;;27.00;99.90;;;;;;5031339;28;20028;-71
2022/04/16 06:41:35;;;;;;;4.78;1.88;;;26.60;99.90;;;;;;5035310;28;20013;-66
2022/04/16 06:44:02;;;;;;;5.55;2.30;;;26.40;99.90;;;;;;5013768;28;20375;-69
2022/04/16 06:46:29;;;;;;;7.55;2.38;;;26.20;99.90;;;;;;5037818;28;20060;-66
2022/04/16 06:48:56;;;;;;;3.70;1.95;;;26.00;99.90;;;;;;5031198;28;20017;-66
2022/04/16 06:51:23;;;;;;;6.35;2.25;;;25.90;99.90;;;;;;5006978;28;20044;-66
2022/04/16 06:53:51;;;;;;;3.88;2.15;;;25.60;99.90;;;;;;5031308;28;20017;-66
2022/04/16 06:56:18;;;;;;;6.12;1.84;;;25.30;99.90;;;;;;4332869;28;10020673;-69
2022/04/16 06:58:45;;;;;;;4.80;1.80;;;25.10;99.90;;;;;;5030521;28;20052;-66
2022/04/16 07:01:12;;;;;;;5.65;1.98;;;24.70;99.90;;;;;;5031200;28;20559;-69
2022/04/16 07:03:39;;;;;;;7.93;2.00;;;24.40;99.90;;;;;;5030734;28;20025;-71
2022/04/16 07:06:05;;;;;;;6.72;2.08;;;24.20;99.90;;;;;;5027882;28;20025;-66
2022/04/16 07:08:32;;;;;;;3.83;1.92;;;24.00;99.90;;;;;;5027797;28;20029;-66
2022/04/16 07:10:59;;;;;;;3.55;2.08;;;23.60;99.90;;;;;;5027897;28;20380;-66
2022/04/16 07:13:26;;;;;;;5.75;2.65;;;23.10;99.90;;;;;;5027881;28;20091;-66
2022/04/16 07:15:53;;;;;;;6.07;2.72;;;22.70;99.90;;;;;;5028714;28;20040;-66
2022/04/16 07:18:20;;;;;;;4.63;2.60;;;22.50;99.90;;;;;;5028335;28;20507;-66
2022/04/16 07:20:47;;;;;;;5.78;2.50;;;22.20;99.90;;;;;;5023602;28;20017;-69
2022/04/16 07:23:15;;;;;;;4.10;2.80;;;22.00;99.90;;;;;;5029054;28;20042;-69
2022/04/16 07:25:42;;;;;;;4.65;2.58;;;21.80;99.90;;;;;;5030842;28;20025;-67
2022/04/16 07:28:11;;;;;;;5.28;2.30;;;21.70;99.90;;;;;;5031662;28;20126;-70
2022/04/16 07:30:38;;;;;;;5.70;2.30;;;21.50;99.90;;;;;;5027429;28;20514;-66
2022/04/16 07:33:05;;;;;;;4.40;2.50;;;21.40;99.90;;;;;;5027264;28;20033;-71
2022/04/16 07:35:32;;;;;;;5.05;1.85;;;21.30;99.90;;;;;;5033941;28;20035;-66
2022/04/16 07:38:00;;;;;;;4.00;2.05;;;21.20;99.90;;;;;;5027453;28;20041;-66
2022/04/16 07:40:28;;;;;;;4.53;2.20;;;21.10;99.90;;;;;;5027323;28;20025;-71
2022/04/16 07:42:56;;;;;;;6.57;2.60;;;21.00;99.90;;;;;;5027777;28;20014;-67
2022/04/16 07:45:23;;;;;;;3.95;1.98;;;20.90;99.90;;;;;;5033825;28;20053;-67
2022/04/16 07:47:49;;;;;;;3.75;2.22;;;20.80;99.90;;;;;;5026119;28;20122;-67
2022/04/16 07:50:17;;;;;;;4.40;2.97;;;20.70;99.90;;;;;;5027291;28;20025;-67
2022/04/16 07:52:45;;;;;;;4.07;2.40;;;20.60;99.90;;;;;;5026953;28;20049;-67
2022/04/16 07:55:13;;;;;;;5.40;3.25;;;20.50;99.90;;;;;;5032708;28;20058;-67
2022/04/16 07:57:39;;;;;;;4.60;2.40;;;20.40;99.90;;;;;;5027396;28;20289;-70
2022/04/16 08:00:08;;;;;;;5.95;2.35;;;20.40;99.90;;;;;;5029238;28;20105;-70
2022/04/16 08:02:35;;;;;;;5.85;2.63;;;20.30;99.90;;;;;;5035164;28;20534;-67
2022/04/16 08:05:02;;;;;;;5.15;2.67;;;20.20;99.90;;;;;;5032222;28;20028;-72
2022/04/16 08:07:30;;;;;;;4.13;2.45;;;20.10;99.90;;;;;;5028240;28;20087;-71
2022/04/16 08:09:57;;;;;;;4.70;2.50;;;20.00;99.90;;;;;;5036305;28;20108;-71
2022/04/16 08:12:25;;;;;;;4.50;2.53;;;20.00;99.90;;;;;;5026617;28;20084;-67
2022/04/16 08:14:52;;;;;;;6.60;2.80;;;19.90;99.90;;;;;;5027933;28;20563;-67
2022/04/16 08:17:19;;;;;;;6.70;2.70;;;19.80;99.90;;;;;;5028478;28;20121;-67
2022/04/16 08:19:47;;;;;;;4.38;2.35;;;19.70;99.90;;;;;;5010603;28;20087;-69
2022/04/16 08:22:18;;;;;;;6.47;2.53;;;19.70;99.90;;;;;;5032403;28;20026;-71
2022/04/16 08:24:54;;;;;;;5.10;2.55;;;19.60;99.90;;;;;;5027894;28;20116;-67
2022/04/16 08:27:22;;;;;;;5.22;2.33;;;19.60;99.90;;;;;;5030551;28;20032;-67
2022/04/16 08:29:49;;;;;;;6.88;3.05;;;19.50;99.90;;;;;;5032156;28;20120;-70
2022/04/16 08:32:16;;;;;;;5.38;2.50;;;19.40;99.90;;;;;;5031643;28;20057;-70
2022/04/16 08:34:43;;;;;;;6.30;2.65;;;19.50;99.90;;;;;;5031748;28;20056;-67
2022/04/16 08:37:10;;;;;;;5.85;3.17;;;19.40;99.90;;;;;;5029784;28;20049;-67
2022/04/16 08:39:36;;;;;;;5.78;2.90;;;19.30;99.90;;;;;;5027232;28;20468;-71
2022/04/16 08:42:04;;;;;;;2.85;2.40;;;19.30;99.90;;;;;;5031751;28;20025;-70
2022/04/16 08:44:32;;;;;;;5.70;2.83;;;19.30;99.90;;;;;;5029532;28;20026;-67
2022/04/16 08:47:00;;;;;;;6.70;3.60;;;19.10;99.90;;;;;;5028522;28;20033;-67
2022/04/16 08:49:28;;;;;;;7.95;3.30;;;19.20;99.90;;;;;;5035780;28;20543;-67
2022/04/16 08:51:56;;;;;;;7.90;3.60;;;19.10;99.90;;;;;;5029083;28;20037;-70
2022/04/16 08:54:23;;;;;;;7.40;3.75;;;19.10;99.90;;;;;;5029660;28;20053;-67
2022/04/16 08:56:50;;;;;;;6.18;3.72;;;19.00;99.90;;;;;;5028432;28;20029;-70
2022/04/16 08:59:17;;;;;;;10.63;4.35;;;18.90;99.90;;;;;;5029475;28;20029;-67
2022/04/16 09:01:44;;;;;;;6.18;4.40;;;18.80;99.90;;;;;;5028903;28;20033;-70
2022/04/16 09:04:22;;;;;;;6.68;3.45;;;18.70;99.90;;;;;;5029323;28;20025;-70
2022/04/16 09:06:57;;;;;;;5.00;3.55;;;18.70;99.90;;;;;;5022393;28;20068;-67
2022/04/16 09:09:25;;;;;;;6.03;3.70;;;18.50;99.90;;;;;;5029035;28;20044;-67
2022/04/16 09:11:52;;;;;;;7.25;4.68;;;18.30;99.90;;;;;;5029084;28;20022;-67
2022/04/16 09:14:19;;;;;;;5.50;3.83;;;18.20;99.90;;;;;;5029249;28;20030;-70
2022/04/16 09:16:47;;;;;;;6.00;3.95;;;18.00;99.90;;;;;;5028921;28;20033;-67
2022/04/16 09:19:21;;;;;;;10.55;4.05;;;18.00;99.90;;;;;;5028658;28;20036;-66
2022/04/16 09:21:48;;;;;;;9.85;4.25;;;17.80;99.90;;;;;;5027631;28;20029;-67
2022/04/16 09:24:15;;;;;;;6.57;4.18;;;17.70;99.90;;;;;;5028698;28;20022;-70
2022/04/16 09:26:42;;;;;;;7.85;4.40;;;17.70;99.90;;;;;;5031009;28;20498;-68
2022/04/16 09:29:14;;;;;;;6.15;4.43;;;17.60;99.90;;;;;;5028351;28;20024;-72
2022/04/16 09:31:45;;;;;;;5.10;4.22;;;17.60;99.90;;;;;;5028949;28;20432;-69
2022/04/16 09:34:20;;;;;;;8.50;4.85;;;17.50;99.90;;;;;;5028094;28;20471;-69
2022/04/16 09:36:48;;;;;;;5.72;4.55;;;17.40;99.90;;;;;;5026890;28;20014;-65
2022/04/16 09:39:16;;;;;;;7.47;4.35;;;17.40;99.90;;;;;;5028277;28;20022;-66
2022/04/16 09:41:51;;;;;;;8.63;4.40;;;17.30;99.90;;;;;;5010608;28;20459;-71
2022/04/16 09:44:25;;;;;;;8.60;5.03;;;17.20;99.90;;;;;;5027168;28;20029;-66
2022/04/16 09:46:55;;;;;;;7.88;5.20;;;17.20;99.90;;;;;;5022520;28;20463;-69
2022/04/16 09:49:23;;;;;;;7.68;5.63;;;17.20;99.90;;;;;;5009569;28;20542;-66
2022/04/16 09:51:50;;;;;;;7.40;4.30;;;17.20;99.90;;;;;;5024882;28;20026;-70
2022/04/16 09:54:21;;;;;;;6.30;4.35;;;17.20;99.90;;;;;;5026804;28;20352;-70
2022/04/16 09:56:48;;;;;;;6.35;4.20;;;17.10;99.90;;;;;;5006186;28;20030;-66
2022/04/16 09:59:17;;;;;;;8.02;4.53;;;17.10;99.90;;;;;;5028675;28;20105;-70
2022/04/16 10:01:49;;;;;;;7.68;5.07;;;17.00;99.90;;;;;;5028521;28;20032;-66
2022/04/16 10:04:20;;;;;;;6.10;4.80;;;17.00;99.90;;;;;;5027314;28;20053;-71
2022/04/16 10:06:48;;;;;;;6.72;4.57;;;17.00;99.90;;;;;;5028627;28;20032;-71
2022/04/16 10:09:22;;;;;;;7.70;4.80;;;16.90;99.90;;;;;;5028245;28;20455;-66
2022/04/16 10:15:00;;;;;;;8.85;5.57;;;16.80;99.90;;;;;;5035766;28;20378;-66
2022/04/16 10:17:45;;;;;;;8.60;5.80;;;16.70;99.90;;;;;;5028690;28;20021;-66
2022/04/16 10:20:23;;;;;;;11.32;5.88;;;16.80;99.90;;;;;;5028153;28;20104;-70
2022/04/16 10:23:07;;;;;;;8.68;5.70;;;16.80;99.90;;;;;;5033097;28;20376;-67
2022/04/16 10:25:36;;;;;;;8.88;5.45;;;16.80;99.90;;;;;;5029177;28;20022;-70
2022/04/16 10:28:12;;;;;;;9.98;5.50;;;16.80;99.90;;;;;;5028809;28;20057;-71
2022/04/16 10:30:50;;;;;;;10.15;6.25;;;16.80;99.90;;;;;;5012084;28;20025;-69
2022/04/16 10:33:19;;;;;;;8.20;5.40;;;16.80;99.90;;;;;;5029109;28;20026;-66
2022/04/16 10:36:00;;;;;;;6.40;5.50;;;16.70;99.90;;;;;;5021481;28;20022;-66
2022/04/16 10:38:36;;;;;;;8.02;5.72;;;16.70;99.90;;;;;;5066435;22;20053;-69
2022/04/16 10:41:25;;;;;;;8.40;5.38;;;16.60;99.90;;;;;;5044964;28;20498;-66
2022/04/16 10:44:00;;;;;;;12.00;5.95;;;16.50;99.90;;;;;;5066845;28;20024;-71
2022/04/16 10:46:46;;;;;;;8.95;5.72;;;16.50;99.90;;;;;;5060630;28;20016;-70
2022/04/16 10:49:14;;;;;;;9.40;6.30;;;16.50;99.90;;;;;;5062075;28;20119;-72
2022/04/16 10:51:42;;;;;;;8.73;5.57;;;16.40;99.90;;;;;;5063958;28;20016;-72
2022/04/16 10:54:27;;;;;;;6.50;5.25;;;16.40;99.90;;;;;;5066686;28;20107;-66
2022/04/16 10:56:55;;;;;;;9.32;5.55;;;16.40;99.90;;;;;;5062517;28;20021;-66
2022/04/16 10:59:45;;;;;;;9.93;5.90;;;16.40;99.90;;;;;;5050174;28;20099;-66
2022/04/16 11:02:28;;;;;;;10.75;5.95;;;16.30;99.90;;;;;;5061506;28;20020;-71
2022/04/16 11:05:10;;;;;;;7.55;5.50;;;16.40;99.90;;;;;;5059691;28;20569;-69
2022/04/16 11:07:39;;;;;;;7.73;5.10;;;16.40;99.90;;;;;;5061779;28;20107;-69
2022/04/16 11:10:10;;;;;;;8.80;5.40;;;16.50;99.90;;;;;;5068251;28;20032;-71
2022/04/16 11:12:41;;;;;;;10.60;5.95;;;16.50;99.90;;;;;;5068674;28;20103;-66
2022/04/16 11:15:19;;;;;;;7.60;5.63;;;16.50;99.90;;;;;;5068586;28;20060;-66
2022/04/16 11:17:46;;;;;;;6.75;4.90;;;16.50;99.90;;;;;;5063878;28;20519;-70
2022/04/16 11:20:13;;;;;;;11.43;5.43;;;16.40;99.90;;;;;;5067645;28;20522;-70
2022/04/16 11:22:40;;;;;;;8.35;4.68;;;16.30;99.90;;;;;;5068749;28;20022;-66
2022/04/16 11:25:08;;;;;;;7.72;5.03;;;16.30;99.90;;;;;;5050330;28;20025;-71
2022/04/16 11:36:05;;;;;;;8.95;6.68;;;16.10;99.90;;;;;;5063293;28;20108;-70
2022/04/16 11:38:34;;;;;;;9.05;7.10;;;16.00;99.90;;;;;;5062444;28;20067;-68
2022/04/16 11:41:04;;;;;;;10.95;7.20;;;15.90;99.90;;;;;;5043187;28;20364;-66
2022/04/16 11:43:33;;;;;;;13.30;7.97;;;16.00;99.90;;;;;;5068815;28;20112;-66
2022/04/16 11:46:04;;;;;;;7.95;7.03;;;16.00;99.90;;;;;;5068281;28;20020;-66
2022/04/16 11:48:33;;;;;;;8.05;6.20;;;16.10;99.90;;;;;;5062407;28;20020;-66
2022/04/16 11:51:01;;;;;;;11.07;7.88;;;16.00;99.90;;;;;;5068398;28;20024;-66
2022/04/16 11:53:28;;;;;;;11.38;7.70;;;15.80;99.90;;;;;;5050603;28;20486;-71
2022/04/16 11:55:57;;;;;;;10.80;8.52;;;15.90;99.90;;;;;;5068672;28;20021;-66
2022/04/16 11:58:30;;;;;;;11.88;8.10;;;16.00;99.90;;;;;;5068191;28;20021;-66
2022/04/16 12:00:57;;;;;;;12.73;8.40;;;16.10;99.90;;;;;;5070602;28;20017;-71
2022/04/16 12:03:44;;;;;;;12.18;8.45;;;16.10;99.90;;;;;;5072467;28;20024;-66
2022/04/16 12:06:13;;;;;;;11.65;8.80;;;16.10;99.90;;;;;;5064423;28;20517;-66
2022/04/16 12:08:44;;;;;;;11.27;8.68;;;16.20;99.90;;;;;;5072300;28;20056;-68
2022/04/16 12:11:11;;;;;;;13.23;8.18;;;16.10;99.90;;;;;;5065521;28;20033;-68
2022/04/16 12:13:41;;;;;;;12.63;8.98;;;16.10;99.90;;;;;;5072354;28;20035;-70
2022/04/16 12:16:15;;;;;;;10.15;8.30;;;16.00;99.90;;;;;;5072193;28;20040;-66
2022/04/16 12:18:46;;;;;;;9.75;8.02;;;16.00;99.90;;;;;;5072568;28;20598;-69
2022/04/16 12:21:15;;;;;;;11.27;7.72;;;16.00;99.90;;;;;;5057895;28;20054;-69
2022/04/16 12:23:44;;;;;;;9.75;8.45;;;15.90;99.90;;;;;;5072120;28;20363;-66
2022/04/16 12:26:16;;;;;;;10.57;8.62;;;15.90;99.90;;;;;;4721714;28;10001231;-71
2022/04/16 12:28:48;;;;;;;11.23;8.95;;;15.90;99.90;;;;;;5072678;28;20382;-69
2022/04/16 12:31:26;;;;;;;10.80;8.40;;;15.80;99.90;;;;;;5049115;28;20059;-66
2022/04/16 12:33:53;;;;;;;10.70;9.32;;;15.80;99.90;;;;;;5067719;28;20019;-69
2022/04/16 12:36:20;;;;;;;12.68;9.57;;;15.80;99.90;;;;;;5074517;28;20028;-69
2022/04/16 12:38:47;;;;;;;12.40;8.80;;;15.80;99.90;;;;;;5074758;28;20058;-72
2022/04/16 12:41:15;;;;;;;12.18;9.18;;;15.80;99.90;;;;;;5074515;28;20402;-71
2022/04/16 12:43:43;;;;;;;12.02;9.52;;;15.80;99.90;;;;;;5074627;28;20353;-69
2022/04/16 12:46:09;;;;;;;13.63;8.98;;;15.80;99.90;;;;;;5074368;28;20434;-66
2022/04/16 12:48:36;;;;;;;10.38;8.02;;;15.80;99.90;;;;;;5075023;28;20025;-66
2022/04/16 12:51:03;;;;;;;11.57;8.45;;;15.70;99.90;;;;;;5074198;28;20028;-66
2022/04/16 12:53:30;;;;;;;12.88;11.52;;;15.70;99.90;;;;;;5074606;28;20033;-66
2022/04/16 12:55:57;;;;;;;14.18;10.57;;;15.80;99.90;;;;;;5074296;28;20017;-66
2022/04/16 12:58:24;;;;;;;12.25;9.93;;;15.70;99.90;;;;;;5074624;28;20013;-69
2022/04/16 13:00:51;;;;;;;14.55;12.63;;;15.70;99.90;;;;;;5074014;28;20356;-71
2022/04/16 13:03:18;;;;;;;15.77;13.85;;;15.70;99.90;;;;;;5074284;28;20024;-69
2022/04/16 13:05:45;;;;;;;16.63;13.40;;;15.70;99.90;;;;;;5074214;28;20032;-70
2022/04/16 13:08:13;;;;;;;18.00;15.93;;;15.60;99.90;;;;;;5074214;28;20377;-66
2022/04/16 13:10:40;;;;;;;36.03;30.88;;;15.70;99.90;;;;;;5073183;28;20097;-66
2022/04/16 13:13:07;;;;;;;23.52;18.35;;;15.70;99.90;;;;;;5073151;28;20016;-66
2022/04/16 13:15:34;;;;;;;20.10;17.30;;;15.70;99.90;;;;;;5073688;28;20290;-69
2022/04/16 13:18:03;;;;;;;16.50;14.52;;;15.70;99.90;;;;;;5074014;28;20556;-70